Time;durP1;ratioP1;P1;durP2;ratioP2;P2;SDS_P1;SDS_P2;PMS_P1;PMS_P2;Temp;Humidity;BMP_temperature;BMP_pressure;BME280_temperature;BME280_humidity;BME280_pressure;Samples;Min_cycle;Max_cycle;Signal;HPM_P1;HPM_P2
2022/11/29 00:01:11;;;;;;;36.03;10.00;;;;;;;2.09;85.97;100614.84;1708706;84;20974;-39
2022/11/29 00:03:38;;;;;;;23.05;8.95;;;;;;;2.06;86.07;100612.72;1708856;84;21570;-39
2022/11/29 00:06:09;;;;;;;28.87;9.18;;;;;;;2.07;85.95;100610.31;1702464;84;21316;-39
2022/11/29 00:08:36;;;;;;;34.98;9.65;;;;;;;2.14;85.69;100612.15;1708901;84;20997;-39
2022/11/29 00:11:13;;;;;;;20.35;9.45;;;;;;;2.12;85.71;100614.31;1708814;84;20985;-39
2022/11/29 00:13:40;;;;;;;14.23;7.70;;;;;;;2.09;85.79;100614.84;1705155;84;21014;-39
2022/11/29 00:16:09;;;;;;;31.00;8.43;;;;;;;2.10;85.76;100611.09;1708614;84;21088;-39
2022/11/29 00:18:36;;;;;;;23.40;7.73;;;;;;;2.14;85.45;100615.36;1709190;84;21100;-39
2022/11/29 00:21:07;;;;;;;17.10;7.50;;;;;;;2.13;85.55;100612.44;1708783;84;21037;-39
2022/11/29 00:23:34;;;;;;;21.15;7.08;;;;;;;2.11;85.52;100616.72;1709162;84;20965;-38
2022/11/29 00:26:06;;;;;;;16.17;7.00;;;;;;;2.13;85.45;100611.88;1708856;84;21021;-39
2022/11/29 00:28:34;;;;;;;33.78;8.03;;;;;;;2.20;85.11;100622.30;1709092;84;20989;-39
2022/11/29 00:31:00;;;;;;;47.70;8.00;;;;;;;2.15;85.14;100620.44;1708868;84;21138;-39
2022/11/29 00:33:27;;;;;;;10.20;6.83;;;;;;;2.11;85.17;100623.41;1678760;84;20934;-39
2022/11/29 00:35:54;;;;;;;27.17;6.17;;;;;;;2.13;85.19;100622.58;1709005;84;20922;-39
2022/11/29 00:38:23;;;;;;;42.70;7.33;;;;;;;2.19;84.76;100618.82;1708715;84;20950;-39
2022/11/29 00:40:51;;;;;;;54.73;7.53;;;;;;;2.16;84.76;100626.06;1702924;84;21119;-39
2022/11/29 00:43:18;;;;;;;42.43;6.83;;;;;;;2.11;84.86;100627.42;1708991;84;21211;-39
2022/11/29 00:45:44;;;;;;;56.18;7.58;;;;;;;2.07;84.85;100627.70;1714877;83;20976;-39
2022/11/29 00:48:11;;;;;;;19.73;6.53;;;;;;;2.09;84.67;100629.55;1722334;83;21035;-39
2022/11/29 00:50:38;;;;;;;30.27;7.20;;;;;;;2.04;84.78;100625.55;1722054;83;20922;-39
2022/11/29 00:53:05;;;;;;;22.80;6.67;;;;;;;2.04;84.94;100620.20;1722333;83;21060;-39
2022/11/29 00:55:32;;;;;;;29.55;6.75;;;;;;;2.06;84.76;100622.61;1722110;83;23196;-39
2022/11/29 00:57:59;;;;;;;27.73;7.10;;;;;;;2.05;84.65;100617.80;1722100;83;20964;-39
2022/11/29 01:00:26;;;;;;;18.75;7.10;;;;;;;2.02;84.90;100621.56;1722257;83;21008;-39
2022/11/29 01:02:53;;;;;;;18.10;6.65;;;;;;;2.03;84.80;100617.26;1722260;83;21019;-39
2022/11/29 01:05:19;;;;;;;20.00;7.05;;;;;;;2.06;84.70;100614.59;1716125;83;21499;-39
2022/11/29 01:07:47;;;;;;;25.48;7.85;;;;;;;2.07;84.72;100619.67;1722107;83;23187;-39
2022/11/29 01:10:14;;;;;;;27.67;7.05;;;;;;;2.05;84.83;100612.98;1722186;83;21048;-39
2022/11/29 01:12:41;;;;;;;32.13;7.42;;;;;;;2.03;84.61;100603.11;1722131;83;21068;-39
2022/11/29 01:15:09;;;;;;;21.02;8.55;;;;;;;2.04;84.52;100600.14;1722090;83;21379;-39
2022/11/29 01:17:37;;;;;;;25.52;8.78;;;;;;;2.02;84.46;100600.16;1722393;83;21507;-39
2022/11/29 01:22:59;;;;;;;22.45;8.25;;;;;;;2.00;84.59;100604.97;1737197;82;21542;-38
2022/11/29 01:25:25;;;;;;;37.17;9.00;;;;;;;2.03;84.34;100605.22;1727013;82;21544;-38
2022/11/29 01:27:53;;;;;;;21.20;8.50;;;;;;;1.97;84.50;100605.53;1727994;83;21032;-38
2022/11/29 01:30:20;;;;;;;14.23;7.97;;;;;;;1.92;84.61;100610.36;1727925;83;21052;-39
2022/11/29 01:32:47;;;;;;;21.07;8.45;;;;;;;1.96;84.51;100605.25;1727930;83;22018;-39
2022/11/29 01:38:17;;;;;;;16.32;7.95;;;;;;;1.95;84.52;100609.80;1767330;78;21045;-39
2022/11/29 21:00:20;;;;;;;15.75;9.40;;;;;;;0.48;86.83;100746.91;1756867;80;22156;-38
2022/11/29 21:02:47;;;;;;;17.55;9.03;;;;;;;0.62;85.25;100753.39;1729033;82;20939;-38
2022/11/29 21:05:15;;;;;;;15.32;9.15;;;;;;;0.65;85.87;100750.19;1710286;83;21147;-38
2022/11/29 21:07:42;;;;;;;16.57;8.23;;;;;;;0.64;85.58;100752.05;1728908;83;21010;-39
2022/11/29 21:10:11;;;;;;;16.27;8.30;;;;;;;0.59;84.98;100748.55;1728758;83;21090;-38
2022/11/29 21:12:39;;;;;;;16.55;8.70;;;;;;;0.59;84.57;100750.69;1728939;83;20928;-38
2022/11/29 21:15:09;;;;;;;13.70;8.38;;;;;;;0.67;83.93;100757.42;1729171;83;20970;-38
2022/11/29 21:17:38;;;;;;;12.65;7.65;;;;;;;0.62;83.76;100747.52;1728774;83;21856;-38
2022/11/29 21:20:08;;;;;;;14.95;7.17;;;;;;;0.61;83.46;100750.44;1728852;83;20955;-38
2022/11/29 21:22:45;;;;;;;13.55;7.55;;;;;;;0.60;82.93;100757.64;1729157;83;21010;-38
2022/11/29 21:25:40;;;;;;;10.88;6.50;;;;;;;0.65;82.32;100756.33;1699058;84;21089;-38
2022/11/29 21:28:15;;;;;;;10.45;6.85;;;;;;;0.63;81.48;100753.66;1720759;83;21558;-38
2022/11/29 21:30:43;;;;;;;11.33;7.05;;;;;;;0.55;81.56;100759.47;1729044;82;21095;-38
2022/11/29 21:33:11;;;;;;;11.55;6.90;;;;;;;0.49;81.42;100753.83;1720702;83;20984;-38
2022/11/29 21:35:38;;;;;;;12.88;7.60;;;;;;;0.47;81.07;100755.97;1728978;83;20994;-38
2022/11/29 21:38:05;;;;;;;15.55;8.13;;;;;;;0.51;80.57;100747.72;1720844;83;21056;-38
2022/11/29 21:40:33;;;;;;;13.45;7.55;;;;;;;0.43;80.38;100745.83;1728886;82;21093;-39
2022/11/29 21:43:00;;;;;;;13.70;7.45;;;;;;;0.37;80.42;100747.38;1728934;82;21961;-38
2022/11/29 21:45:27;;;;;;;12.25;7.97;;;;;;;0.32;80.71;100750.02;1720666;83;20929;-38
2022/11/29 21:47:53;;;;;;;11.85;8.03;;;;;;;0.36;80.58;100747.10;1728570;83;21635;-38
2022/11/29 21:50:21;;;;;;;12.25;7.87;;;;;;;0.34;80.53;100747.34;1720722;83;20937;-39
2022/11/29 21:52:51;;;;;;;13.93;7.87;;;;;;;0.27;80.50;100745.45;1728943;83;21077;-39
2022/11/29 21:55:17;;;;;;;12.43;7.47;;;;;;;0.23;80.82;100747.56;1723386;83;21186;-38
2022/11/29 21:57:44;;;;;;;13.88;8.93;;;;;;;0.29;80.82;100744.65;1728807;83;20991;-38
2022/11/29 22:00:13;;;;;;;12.55;8.03;;;;;;;0.29;80.83;100744.65;1737667;82;21004;-38
2022/11/29 22:02:40;;;;;;;10.60;6.87;;;;;;;0.27;80.81;100745.45;1741929;82;21519;-38
2022/11/29 22:05:08;;;;;;;12.58;7.22;;;;;;;0.25;80.96;100751.56;1741600;82;21022;-38
2022/11/29 22:07:35;;;;;;;11.22;7.78;;;;;;;0.36;81.07;100747.91;1741778;82;21863;-38
2022/11/29 22:10:03;;;;;;;15.88;8.93;;;;;;;0.43;80.82;100750.36;1736004;82;21525;-38
2022/11/29 22:12:32;;;;;;;13.35;8.08;;;;;;;0.44;80.81;100755.94;1741627;82;21088;-39
2022/11/29 22:14:58;;;;;;;12.65;7.62;;;;;;;0.41;80.52;100757.80;1741602;82;20987;-38
2022/11/29 22:17:25;;;;;;;12.90;7.92;;;;;;;0.38;80.26;100751.13;1741556;81;21008;-39
2022/11/29 22:19:52;;;;;;;13.85;8.38;;;;;;;0.42;80.10;100754.89;1741818;81;21228;-38
2022/11/29 22:22:19;;;;;;;13.50;7.87;;;;;;;0.39;80.38;100756.72;1741583;82;21006;-39
2022/11/29 22:24:45;;;;;;;15.98;9.48;;;;;;;0.38;80.23;100752.47;1741589;81;21069;-38
2022/11/29 22:27:12;;;;;;;14.80;8.98;;;;;;;0.42;80.34;100754.89;1741767;81;20977;-39
2022/11/29 22:29:39;;;;;;;14.95;8.88;;;;;;;0.53;80.03;100754.42;1741687;82;21016;-38
2022/11/29 22:32:07;;;;;;;13.28;8.98;;;;;;;0.53;79.89;100758.95;1741602;82;20975;-38
2022/11/29 22:34:34;;;;;;;14.83;8.30;;;;;;;0.49;79.88;100757.30;1741722;81;21046;-39
2022/11/29 22:37:01;;;;;;;10.65;7.78;;;;;;;0.49;79.86;100755.16;1741575;82;21013;-38
2022/11/29 22:39:28;;;;;;;14.55;8.50;;;;;;;0.52;79.73;100757.33;1741523;82;21418;-38
2022/11/29 22:41:55;;;;;;;16.32;9.15;;;;;;;0.56;79.64;100753.08;1741865;82;21055;-39
2022/11/29 22:44:23;;;;;;;17.62;9.53;;;;;;;0.54;79.66;100752.52;1741624;81;21144;-38
2022/11/29 22:46:49;;;;;;;17.62;10.40;;;;;;;0.50;79.64;100754.11;1741520;81;21041;-38
2022/11/29 22:49:16;;;;;;;14.75;8.80;;;;;;;0.44;79.66;100754.08;1741592;81;20998;-38
2022/11/29 22:51:43;;;;;;;14.30;8.78;;;;;;;0.51;79.58;100750.39;1741532;82;21376;-38
2022/11/29 22:54:14;;;;;;;15.58;9.65;;;;;;;0.48;79.56;100750.91;1741432;82;21025;-38
2022/11/29 22:56:40;;;;;;;14.33;7.83;;;;;;;0.41;79.65;100747.13;1741708;82;21506;-38
2022/11/29 22:59:07;;;;;;;14.20;8.70;;;;;;;0.41;79.79;100753.27;1739259;82;21057;-38
2022/11/29 23:01:36;;;;;;;13.03;9.15;;;;;;;0.47;79.94;100756.78;1730985;82;21089;-38
2022/11/29 23:04:05;;;;;;;16.10;9.37;;;;;;;0.49;79.83;100747.97;1731399;82;21527;-38
2022/11/29 23:06:37;;;;;;;15.90;9.30;;;;;;;0.47;79.88;100742.11;1731065;82;21599;-38
2022/11/29 23:09:09;;;;;;;15.43;9.20;;;;;;;0.49;79.93;100747.97;1731083;82;21190;-38
2022/11/29 23:11:36;;;;;;;14.13;8.95;;;;;;;0.54;79.59;100745.33;1731209;82;21101;-39
2022/11/29 23:14:02;;;;;;;13.83;8.75;;;;;;;0.57;79.72;100743.49;1731085;82;21527;-38
2022/11/29 23:16:29;;;;;;;15.55;9.63;;;;;;;0.58;79.74;100740.30;1730962;82;21551;-39
2022/11/29 23:18:57;;;;;;;13.15;8.58;;;;;;;0.60;79.73;100739.48;1731166;82;21566;-39
2022/11/29 23:21:28;;;;;;;14.38;8.75;;;;;;;0.59;79.36;100735.20;1731022;82;21186;-38
2022/11/29 23:23:55;;;;;;;12.68;8.48;;;;;;;0.62;78.95;100736.84;1731019;82;21010;-39
2022/11/29 23:26:25;;;;;;;16.73;8.45;;;;;;;0.58;78.95;100742.41;1731017;82;21002;-38
2022/11/29 23:28:52;;;;;;;;;;;;;;;0.55;79.13;100737.59;1733561;82;21026;-38
